Airfield :
LOGIN :

Register | Disclaimer

   EN    FR    IT 

 










Legend :    VFR   Marginal VFR   IFR   Intensive IFR   Very Intensive IFR
Visi :
Ceiling :
>= 8 km
>= 3000ft
5 to 8 km
1000 to 3000 ft
1500m to 5 km
500 to 1000 ft
800 to 1500m
200 to 500 ft
< 800m
< 200 ft
Symbols :   Thunderstorms  Fog  Heavy snow  Heavy precipitations  Wind > 20 kt
SIGMETs :     Misc.  Thunderstorms  Icing  Turbulence  Mountain Waves  Volcanic Ashes







- Airport Elevation : 26 ft
- IATA code : BIA
- Download approach charts


LFKB - Bastia

CURRENT METAR :
  • 201500Z 03007G18KT 350V060 9999 FEW043 BKN250 29/17 Q1014 NOSIG

EXPIRED METARs :
  • 201430Z 02005KT 320V080 9999 FEW043 BKN250 29/16 Q1014 NOSIG
  • 201400Z 03008KT 9999 FEW043 BKN250 29/17 Q1014 NOSIG
  • 201330Z 01007KT 330V060 9999 FEW043 BKN250 29/16 Q1014 NOSIG
  • 201300Z 03009KT 350V070 9999 FEW043 BKN250 29/17 Q1014 NOSIG
  • 201230Z 03008KT 360V070 9999 FEW043 29/16 Q1015 NOSIG

TAF TAF LFKB
Valid from the 20 at 15:00 until the 21 at 15:00 UTC


201400Z 2015/2115 02010KT 9999 FEW040
BECMG 2018/2020 24006KT
BECMG 2108/2110 04010KT TX30/2112Z TN19/2103Z
ATIS : +33 4 95 59 19 40
No reported NOTAMs for that airfield.
1 SIGMET reported for the Marseille FIR (LFMM) :
 
Severe turbulence
LFMM SIGMET 4 VALID 201400/201800 LFPW
LFMM MARSEILLE FIR/UIR SEV TURB FCST WI N4300 E00415 - N4430 E00430 - N4430 E00500 - N4300 E00530 SFC/FL050 STNR NC=



MET'MAP, your aeronautical weather chart ! - Copyright ORBIFLY December 2007 - Disclaimer

ORBIFLY MET'MAP TEAM :

Programming & Development : Alexandra Zaïnal
Concept & Development : Baudouin d'Aumeries
Co-Development & Prog : Marc-Olivier Méhu
Technical & hardware support : Manuel Goepfert

Contact : metmap@orbifly.com




SOURCES & CREDITS :

   NOAA